Time;durP1;ratioP1;P1;durP2;ratioP2;P2;SDS_P1;SDS_P2;PMS_P1;PMS_P2;Temp;Humidity;BMP_temperature;BMP_pressure;BME280_temperature;BME280_humidity;BME280_pressure;Samples;Min_cycle;Max_cycle;Signal;HPM_P1;HPM_P2
2023/01/12 00:01:20;;;;;;;7.80;7.30;;;;;;;7.70;85.78;99623.78;5050525;28;20192;-74
2023/01/12 00:03:47;;;;;;;8.63;7.93;;;;;;;7.77;86.18;99624.75;5041045;28;20715;-74
2023/01/12 00:06:14;;;;;;;8.33;7.63;;;;;;;7.75;85.38;99631.16;5052437;28;20201;-74
2023/01/12 00:08:41;;;;;;;8.03;7.50;;;;;;;7.77;85.52;99639.78;5046611;28;20197;-74
2023/01/12 00:11:08;;;;;;;8.00;7.50;;;;;;;7.91;85.35;99636.34;5042374;28;20184;-74
2023/01/12 00:13:34;;;;;;;7.20;6.70;;;;;;;7.96;84.80;99644.63;5052486;28;20192;-74
2023/01/12 00:18:53;;;;;;;7.27;6.77;;;;;;;7.98;84.03;99654.03;5027562;28;20195;-74
2023/01/12 00:21:20;;;;;;;6.97;6.47;;;;;;;7.99;84.70;99645.06;5034721;28;20286;-74
2023/01/12 00:23:47;;;;;;;7.23;6.73;;;;;;;8.03;84.50;99642.88;5051400;28;20224;-74
2023/01/12 00:26:14;;;;;;;6.90;6.40;;;;;;;8.07;84.88;99654.78;5037944;28;20193;-74
2023/01/12 00:28:40;;;;;;;6.53;6.17;;;;;;;7.99;83.56;99654.81;5033399;28;20197;-75
2023/01/12 00:31:10;;;;;;;6.77;6.37;;;;;;;8.05;83.79;99657.59;5048333;28;20193;-75
2023/01/12 00:33:38;;;;;;;7.70;7.20;;;;;;;8.04;82.98;99663.88;5051565;28;20191;-74
2023/01/12 00:36:07;;;;;;;6.47;6.07;;;;;;;8.06;83.17;99663.72;5051941;28;20195;-74
2023/01/12 00:38:35;;;;;;;8.10;7.50;;;;;;;8.03;83.58;99677.28;5051850;28;20266;-74
2023/01/12 00:41:05;;;;;;;7.07;6.47;;;;;;;7.87;83.48;99661.50;5044497;28;20268;-74
2023/01/12 00:46:17;;;;;;;7.37;6.83;;;;;;;7.79;84.41;99648.34;5050888;28;20195;-73
2023/01/12 00:48:44;;;;;;;6.50;6.10;;;;;;;7.88;83.99;99663.19;5051980;28;20258;-73
2023/01/12 00:51:11;;;;;;;6.97;6.47;;;;;;;7.79;84.41;99672.13;5051955;28;20657;-73
2023/01/12 00:53:38;;;;;;;7.63;7.13;;;;;;;7.78;83.71;99667.84;5050463;28;20192;-73
2023/01/12 00:56:05;;;;;;;7.37;6.87;;;;;;;7.78;83.84;99667.84;5052309;28;20192;-73
2023/01/12 00:58:32;;;;;;;8.97;8.07;;;;;;;7.81;84.56;99671.00;5041644;28;20206;-73
2023/01/12 01:01:04;;;;;;;7.93;7.23;;;;;;;7.78;83.93;99665.22;5051652;28;20219;-73
2023/01/12 01:03:32;;;;;;;6.87;6.47;;;;;;;7.76;84.11;99672.50;5031955;28;20685;-73
2023/01/12 01:06:02;;;;;;;7.40;6.80;;;;;;;7.83;83.98;99673.44;5034894;28;20197;-73
2023/01/12 01:08:29;;;;;;;7.20;6.70;;;;;;;7.91;83.91;99673.38;5040623;28;20192;-73
2023/01/12 01:11:02;;;;;;;6.93;6.53;;;;;;;7.81;83.83;99678.91;5046191;28;20258;-72
2023/01/12 01:13:28;;;;;;;7.60;7.10;;;;;;;7.82;84.13;99674.44;5051398;28;20256;-73
2023/01/12 01:15:55;;;;;;;7.37;6.77;;;;;;;7.71;84.03;99673.00;5041011;28;20201;-73
2023/01/12 01:18:22;;;;;;;7.43;6.93;;;;;;;7.71;84.46;99672.19;5031778;28;20257;-72
2023/01/12 01:20:50;;;;;;;7.13;6.63;;;;;;;7.73;83.53;99686.06;5040593;28;20582;-73
2023/01/12 01:23:16;;;;;;;7.20;6.70;;;;;;;7.66;83.84;99680.63;5038745;28;20302;-73
2023/01/12 01:25:43;;;;;;;7.80;7.20;;;;;;;7.75;84.18;99684.06;5031869;28;20220;-73
2023/01/12 01:28:10;;;;;;;7.63;7.13;;;;;;;7.68;84.40;99683.91;5039183;28;20253;-73
2023/01/12 01:30:36;;;;;;;6.57;6.07;;;;;;;7.78;83.82;99683.72;5049738;28;20196;-73
2023/01/12 01:33:03;;;;;;;7.50;6.80;;;;;;;7.79;83.84;99677.41;5051274;28;20660;-73
2023/01/12 01:35:30;;;;;;;6.97;6.57;;;;;;;7.75;83.98;99676.13;5049325;28;20196;-72
2023/01/12 01:37:58;;;;;;;7.13;6.63;;;;;;;7.72;83.98;99673.84;5052003;28;20277;-73
2023/01/12 01:40:25;;;;;;;7.23;6.73;;;;;;;7.67;83.50;99681.47;5040325;28;20200;-74
2023/01/12 01:42:51;;;;;;;6.83;6.43;;;;;;;7.59;83.90;99673.59;5038293;28;20195;-73
2023/01/12 01:45:18;;;;;;;6.37;5.97;;;;;;;7.55;83.81;99669.63;5037917;28;20697;-73
2023/01/12 01:47:49;;;;;;;6.47;6.10;;;;;;;7.56;84.16;99668.63;5048565;28;20196;-73
2023/01/12 01:50:19;;;;;;;5.67;5.27;;;;;;;7.55;83.75;99674.94;5058424;28;20200;-73
2023/01/12 01:52:50;;;;;;;5.53;5.17;;;;;;;7.56;84.21;99668.63;5045708;28;20251;-73
2023/01/12 01:55:22;;;;;;;5.70;5.40;;;;;;;7.56;83.62;99673.91;5050679;28;20579;-73
2023/01/12 01:57:54;;;;;;;5.07;4.77;;;;;;;7.56;83.51;99669.44;5044603;28;20238;-73
2023/01/12 02:00:23;;;;;;;5.33;5.03;;;;;;;7.62;83.40;99667.94;5051782;28;20572;-73
2023/01/12 02:02:50;;;;;;;5.40;5.10;;;;;;;7.71;83.83;99665.06;5047761;28;20196;-72
2023/01/12 02:05:19;;;;;;;5.73;5.37;;;;;;;7.74;83.83;99666.53;5053626;28;20276;-73
2023/01/12 02:07:46;;;;;;;4.80;4.50;;;;;;;7.90;84.07;99666.44;5038123;28;20193;-73
2023/01/12 02:10:12;;;;;;;4.77;4.47;;;;;;;7.90;83.83;99661.16;5044187;28;20246;-73
2023/01/12 02:18:21;;;;;;;3.93;3.73;;;;;;;7.75;83.87;99662.91;5057346;28;20196;-73
2023/01/12 02:21:11;;;;;;;4.90;4.60;;;;;;;7.58;84.45;99656.88;5057855;28;20188;-73
2023/01/12 02:24:09;;;;;;;4.37;4.17;;;;;;;7.53;84.37;99666.31;5056970;28;20306;-73
2023/01/12 02:27:17;;;;;;;4.27;4.07;;;;;;;7.29;84.70;99656.69;5056745;28;20189;-73
2023/01/12 02:30:23;;;;;;;4.70;4.27;;;;;;;7.32;84.33;99661.66;5048708;28;20721;-73
2023/01/12 02:33:03;;;;;;;4.43;4.13;;;;;;;7.35;84.29;99661.28;5057634;28;20243;-73
2023/01/12 02:35:43;;;;;;;4.40;4.10;;;;;;;7.35;84.56;99663.91;5042015;28;20613;-74
2023/01/12 02:38:17;;;;;;;4.60;4.40;;;;;;;7.53;84.21;99667.16;5057403;28;20185;-73
2023/01/12 02:40:52;;;;;;;4.07;3.83;;;;;;;7.55;83.55;99662.50;5043737;28;20180;-73
2023/01/12 02:43:24;;;;;;;5.13;4.83;;;;;;;7.47;83.77;99656.47;5047571;28;20581;-73
2023/01/12 02:45:56;;;;;;;4.23;4.03;;;;;;;7.59;84.31;99663.81;5057333;28;20212;-73
2023/01/12 02:48:28;;;;;;;4.43;4.13;;;;;;;7.69;83.59;99661.78;5056952;28;20275;-72
2023/01/12 02:51:01;;;;;;;5.10;4.80;;;;;;;7.77;83.50;99661.75;5052139;28;20197;-72
2023/01/12 02:53:32;;;;;;;4.20;3.90;;;;;;;7.72;83.32;99668.56;5038518;28;20607;-72
2023/01/12 02:56:01;;;;;;;4.53;4.23;;;;;;;7.75;82.76;99657.59;5054429;28;20197;-73
2023/01/12 02:58:31;;;;;;;5.20;4.90;;;;;;;7.77;83.26;99660.91;5044981;28;20196;-73
2023/01/12 03:01:00;;;;;;;5.60;5.23;;;;;;;7.75;82.91;99654.97;5034369;28;20193;-73
2023/01/12 03:03:29;;;;;;;4.50;4.23;;;;;;;7.74;82.95;99662.09;5050965;28;20192;-73
2023/01/12 03:05:58;;;;;;;5.13;4.53;;;;;;;7.72;83.50;99658.78;5051506;28;20278;-73
2023/01/12 03:08:27;;;;;;;4.70;4.40;;;;;;;7.79;82.87;99662.38;5034432;28;20201;-73
2023/01/12 03:11:05;;;;;;;5.07;4.67;;;;;;;7.86;83.14;99670.44;5033782;28;20745;-73
2023/01/12 03:13:35;;;;;;;4.53;4.33;;;;;;;7.87;83.13;99664.16;5035352;28;20186;-73
2023/01/12 03:16:04;;;;;;;4.93;4.63;;;;;;;7.75;82.66;99660.25;5042601;28;20734;-73
2023/01/12 03:18:37;;;;;;;4.20;4.00;;;;;;;7.87;83.15;99666.78;5053552;28;20746;-74
2023/01/12 03:21:07;;;;;;;5.30;4.90;;;;;;;7.87;83.24;99661.50;5054039;28;20645;-73
2023/01/12 03:23:40;;;;;;;4.57;4.37;;;;;;;7.89;83.42;99664.81;5052973;28;20307;-73
2023/01/12 03:26:10;;;;;;;4.67;4.43;;;;;;;8.00;83.15;99672.34;5053280;28;20212;-73
2023/01/12 03:28:38;;;;;;;4.40;4.10;;;;;;;8.03;82.62;99669.34;5045240;28;20197;-73
2023/01/12 03:31:09;;;;;;;5.03;4.73;;;;;;;7.89;82.28;99675.41;5048297;28;20208;-73
2023/01/12 03:33:39;;;;;;;4.90;4.57;;;;;;;7.93;83.08;99671.41;5052942;28;20307;-73
2023/01/12 03:36:14;;;;;;;4.87;4.57;;;;;;;7.95;83.51;99674.69;5053568;28;20205;-74
2023/01/12 03:38:47;;;;;;;4.30;4.00;;;;;;;7.99;82.81;99681.28;5042010;28;20185;-73
2023/01/12 03:41:26;;;;;;;4.20;4.00;;;;;;;8.08;82.32;99674.97;5038003;28;20188;-73
2023/01/12 03:43:58;;;;;;;4.60;4.30;;;;;;;8.01;82.56;99682.75;5043826;28;20660;-72
2023/01/12 03:46:29;;;;;;;4.70;4.40;;;;;;;8.07;82.15;99678.56;5053630;28;20253;-73
2023/01/12 03:49:01;;;;;;;4.87;4.67;;;;;;;8.12;82.60;99681.50;5052473;28;20970;-73
2023/01/12 03:51:32;;;;;;;4.60;4.30;;;;;;;8.02;82.30;99675.63;5052255;28;20181;-73
2023/01/12 03:53:59;;;;;;;4.77;4.57;;;;;;;8.05;82.77;99685.88;5033514;28;20181;-73
2023/01/12 03:56:29;;;;;;;4.87;4.53;;;;;;;7.95;82.99;99686.09;5041408;28;20582;-73
2023/01/12 03:58:57;;;;;;;4.97;4.47;;;;;;;7.97;84.31;99680.63;5040439;28;20195;-73
2023/01/12 04:01:24;;;;;;;4.33;4.13;;;;;;;7.97;83.50;99683.28;5033244;28;20193;-73
2023/01/12 04:03:50;;;;;;;4.90;4.63;;;;;;;7.98;83.51;99682.28;5050227;28;20478;-73
2023/01/12 04:06:18;;;;;;;5.10;4.80;;;;;;;7.85;83.94;99682.03;5047404;28;20212;-73
2023/01/12 04:08:45;;;;;;;5.57;5.20;;;;;;;7.81;84.14;99676.28;5032910;28;20193;-73
2023/01/12 04:13:56;;;;;;;6.03;5.60;;;;;;;7.77;85.03;99682.91;5032832;28;20191;-73
2023/01/12 04:16:22;;;;;;;5.33;5.03;;;;;;;7.85;84.80;99679.38;5046863;28;20261;-73
2023/01/12 04:18:49;;;;;;;5.23;4.93;;;;;;;7.87;84.79;99683.50;5044014;28;20189;-73
2023/01/12 04:24:01;;;;;;;5.03;4.63;;;;;;;7.81;84.82;99691.31;5048322;28;20243;-73
2023/01/12 04:26:28;;;;;;;5.40;5.10;;;;;;;7.89;84.33;99696.56;5039958;28;20228;-74
2023/01/12 04:28:55;;;;;;;5.07;4.70;;;;;;;7.80;83.71;99692.31;5035174;28;20727;-73
2023/01/12 04:31:21;;;;;;;6.03;5.47;;;;;;;7.80;83.89;99695.75;5036532;28;20247;-73
2023/01/12 04:33:48;;;;;;;5.27;4.97;;;;;;;7.78;83.50;99689.84;5050898;28;20193;-74
2023/01/12 04:36:15;;;;;;;5.57;5.20;;;;;;;7.83;84.13;99689.28;5046510;28;20265;-72
2023/01/12 04:38:42;;;;;;;6.97;6.43;;;;;;;7.76;84.01;99693.66;5040550;28;20197;-74
2023/01/12 04:41:10;;;;;;;5.17;4.87;;;;;;;7.61;84.01;99698.84;5044005;28;20665;-74
2023/01/12 04:43:37;;;;;;;4.60;4.20;;;;;;;7.68;84.34;99698.97;5036564;28;20259;-73
2023/01/12 04:46:07;;;;;;;4.23;3.97;;;;;;;7.73;84.24;99696.63;5044196;28;20220;-72
2023/01/12 04:48:34;;;;;;;4.40;3.77;;;;;;;7.79;84.59;99701.22;5050365;28;20243;-72
2023/01/12 04:51:01;;;;;;;4.30;4.00;;;;;;;7.82;83.75;99706.16;5040385;28;20260;-73
2023/01/12 04:53:28;;;;;;;4.60;4.20;;;;;;;7.80;84.66;99708.19;5033399;28;20189;-73
2023/01/12 04:55:55;;;;;;;4.27;4.07;;;;;;;7.77;83.50;99704.06;5050030;28;20212;-73
2023/01/12 04:58:23;;;;;;;4.10;3.90;;;;;;;7.84;84.24;99714.78;5049575;28;20733;-73
2023/01/12 05:00:50;;;;;;;3.83;3.57;;;;;;;7.74;83.78;99692.97;5033785;28;20222;-72
2023/01/12 05:03:17;;;;;;;4.23;3.93;;;;;;;7.74;83.27;99695.63;5031723;28;20205;-73
2023/01/12 05:05:43;;;;;;;4.40;4.20;;;;;;;7.86;83.62;99718.03;5032519;28;21928;-73
2023/01/12 05:10:56;;;;;;;4.57;4.37;;;;;;;7.72;83.41;99716.16;5051111;28;20252;-74
2023/01/12 05:13:25;;;;;;;4.60;4.40;;;;;;;7.76;83.74;99712.16;5048724;28;20196;-74
2023/01/12 05:15:51;;;;;;;5.03;4.70;;;;;;;7.87;83.67;99714.41;5048541;28;20714;-73
2023/01/12 05:18:18;;;;;;;4.60;4.30;;;;;;;7.94;84.00;99720.66;5040553;28;20196;-73
2023/01/12 05:20:45;;;;;;;4.80;4.47;;;;;;;7.90;83.91;99714.91;5051573;28;20200;-73
2023/01/12 05:23:12;;;;;;;4.57;4.37;;;;;;;7.76;83.24;99704.22;5045678;28;20217;-72
2023/01/12 05:25:39;;;;;;;4.90;4.60;;;;;;;7.85;83.63;99719.06;5031620;28;20221;-72
2023/01/12 05:28:05;;;;;;;5.03;4.63;;;;;;;7.87;84.32;99719.69;5032649;28;20660;-72
2023/01/12 05:30:33;;;;;;;4.80;4.40;;;;;;;7.80;83.92;99714.28;5038315;28;20189;-72
2023/01/12 05:33:00;;;;;;;5.00;4.70;;;;;;;7.64;84.61;99714.34;5031690;28;20204;-74
2023/01/12 05:35:27;;;;;;;5.37;5.07;;;;;;;7.73;84.33;99720.44;5037143;28;20205;-74
2023/01/12 05:37:55;;;;;;;6.00;5.50;;;;;;;7.62;84.97;99731.38;5046699;28;20580;-73
2023/01/12 05:40:22;;;;;;;6.43;5.97;;;;;;;7.56;84.66;99732.06;5051087;28;20282;-73
2023/01/12 05:45:36;;;;;;;7.20;6.50;;;;;;;7.55;85.12;99730.44;5031283;28;20342;-74
2023/01/12 05:48:02;;;;;;;6.63;6.13;;;;;;;7.54;85.74;99728.75;5038417;28;20740;-74
2023/01/12 05:50:29;;;;;;;6.73;6.30;;;;;;;7.56;85.69;99730.22;5049782;28;20200;-74
2023/01/12 05:52:56;;;;;;;7.73;7.13;;;;;;;7.58;85.42;99719.50;5049899;28;20189;-74
2023/01/12 05:55:22;;;;;;;8.40;7.73;;;;;;;7.58;86.12;99727.41;5044330;28;20229;-73
2023/01/12 05:57:49;;;;;;;11.93;10.83;;;;;;;7.57;86.30;99723.13;5031892;28;20192;-73
2023/01/12 06:00:17;;;;;;;11.63;10.73;;;;;;;7.70;86.14;99728.69;5031225;28;20191;-73
2023/01/12 06:02:45;;;;;;;11.50;10.50;;;;;;;7.65;85.65;99731.88;5043785;28;20193;-74
2023/01/12 06:05:12;;;;;;;8.33;7.57;;;;;;;7.72;85.73;99732.81;5050554;28;20224;-74
2023/01/12 06:07:39;;;;;;;8.67;7.97;;;;;;;7.75;85.17;99727.19;5033346;28;20595;-73
2023/01/12 06:10:06;;;;;;;11.73;9.03;;;;;;;7.90;85.28;99724.63;5051282;28;20579;-78
2023/01/12 06:15:17;;;;;;;9.30;8.50;;;;;;;7.90;84.87;99729.94;5031411;28;20215;-79
2023/01/12 06:17:45;;;;;;;7.07;6.53;;;;;;;7.92;84.73;99734.03;5038925;28;20251;-74
2023/01/12 06:20:15;;;;;;;8.50;7.90;;;;;;;8.04;84.38;99731.84;5031639;28;20198;-75
2023/01/12 06:22:43;;;;;;;8.13;7.53;;;;;;;8.03;83.59;99732.81;5046100;28;20232;-73
2023/01/12 06:25:10;;;;;;;10.40;9.27;;;;;;;8.09;82.90;99737.44;5048842;28;20217;-73
2023/01/12 06:27:37;;;;;;;18.27;11.10;;;;;;;8.08;83.18;99733.16;5042697;28;20196;-72
2023/01/12 06:30:05;;;;;;;22.50;12.50;;;;;;;8.08;83.08;99722.56;5055272;28;20628;-72
2023/01/12 06:32:32;;;;;;;31.93;14.73;;;;;;;8.21;82.84;99749.31;5038709;28;20202;-73
2023/01/12 06:35:01;;;;;;;46.20;18.77;;;;;;;8.23;82.15;99755.22;5052650;28;20662;-73
2023/01/12 06:37:28;;;;;;;60.90;18.90;;;;;;;8.14;81.93;99765.03;5048472;28;20798;-73
2023/01/12 06:39:55;;;;;;;81.80;25.70;;;;;;;8.11;82.21;99756.59;5034586;28;20696;-71
2023/01/12 06:42:31;;;;;;;44.47;16.67;;;;;;;8.16;82.69;99756.88;5034007;28;20666;-73
2023/01/12 06:44:59;;;;;;;65.57;22.70;;;;;;;8.13;81.59;99765.19;5034845;28;20203;-73
2023/01/12 06:47:26;;;;;;;44.80;18.37;;;;;;;8.18;81.51;99779.56;5034647;28;20193;-73
2023/01/12 06:49:53;;;;;;;20.87;11.77;;;;;;;8.15;81.17;99776.41;5049356;28;20200;-74
2023/01/12 06:52:23;;;;;;;20.13;12.03;;;;;;;8.11;81.38;99770.66;5046293;28;20627;-73
2023/01/12 06:54:50;;;;;;;9.87;8.80;;;;;;;8.10;81.92;99768.19;5041169;28;20189;-72
2023/01/12 06:57:17;;;;;;;8.03;7.43;;;;;;;8.48;89.91;99767.31;5049830;28;20197;-67
2023/01/12 06:59:44;;;;;;;8.43;7.73;;;;;;;8.39;83.00;99765.72;5046997;28;20201;-68
2023/01/12 07:02:12;;;;;;;7.60;7.00;;;;;;;8.35;82.78;99772.38;5045698;28;20273;-67
2023/01/12 07:04:39;;;;;;;10.93;9.83;;;;;;;8.23;83.48;99769.28;5046408;28;20196;-77
2023/01/12 07:07:06;;;;;;;9.20;8.50;;;;;;;8.14;82.13;99766.84;5047976;28;20278;-80
2023/01/12 07:09:35;;;;;;;8.17;7.57;;;;;;;8.16;82.76;99781.53;5047195;28;20192;-74
2023/01/12 07:12:02;;;;;;;6.70;6.30;;;;;;;8.25;82.79;99772.56;5048824;28;20737;-77
2023/01/12 07:14:28;;;;;;;5.77;5.37;;;;;;;8.24;81.16;99778.88;5035339;28;20255;-77
2023/01/12 07:16:55;;;;;;;6.20;5.80;;;;;;;8.22;82.13;99774.75;5032129;28;20200;-78
2023/01/12 07:19:22;;;;;;;6.40;5.70;;;;;;;8.42;84.53;99775.97;5033124;28;20684;-76
2023/01/12 07:21:49;;;;;;;6.17;5.67;;;;;;;8.49;83.45;99776.91;5042036;28;20196;-78
2023/01/12 07:24:16;;;;;;;8.63;7.93;;;;;;;8.56;82.81;99780.50;5052088;28;20605;-77
2023/01/12 07:26:48;;;;;;;7.47;6.97;;;;;;;8.55;80.45;99786.78;5053814;28;20223;-80
2023/01/12 07:29:15;;;;;;;8.67;7.97;;;;;;;8.51;80.62;99777.56;5049486;28;20184;-76
2023/01/12 07:31:43;;;;;;;8.23;7.43;;;;;;;8.55;81.11;99784.97;5033305;28;20255;-78
2023/01/12 07:34:09;;;;;;;8.43;6.53;;;;;;;8.48;81.23;99788.47;5033249;28;20288;-70
2023/01/12 07:36:36;;;;;;;8.13;7.33;;;;;;;8.46;82.21;99793.94;5048147;28;20196;-74
2023/01/12 07:39:03;;;;;;;13.03;11.33;;;;;;;8.56;82.46;99783.13;5053689;28;20196;-76
2023/01/12 07:44:15;;;;;;;18.57;10.80;;;;;;;8.65;82.41;99797.97;5045812;28;20192;-77
2023/01/12 07:46:42;;;;;;;8.03;7.43;;;;;;;8.53;80.58;99796.75;5034005;28;20220;-78
2023/01/12 07:49:08;;;;;;;7.67;7.07;;;;;;;8.56;81.67;99796.38;5034028;28;20592;-74
2023/01/12 07:51:35;;;;;;;6.77;6.20;;;;;;;8.43;81.71;99796.97;5033933;28;20255;-75
2023/01/12 07:54:02;;;;;;;7.67;7.00;;;;;;;8.44;80.95;99803.06;5038941;28;20630;-75
2023/01/12 07:56:29;;;;;;;7.00;6.40;;;;;;;8.23;80.38;99802.84;5053725;28;20204;-75
2023/01/12 07:58:55;;;;;;;9.23;7.50;;;;;;;8.28;80.68;99811.09;5043091;28;20189;-75
2023/01/12 08:01:24;;;;;;;7.53;6.80;;;;;;;8.36;80.36;99805.75;5033410;28;20193;-74
2023/01/12 08:03:50;;;;;;;7.80;7.00;;;;;;;8.50;81.81;99812.97;5041743;28;20192;-74
2023/01/12 08:06:17;;;;;;;8.00;7.10;;;;;;;8.64;81.45;99810.41;5050281;28;20220;-74
2023/01/12 08:08:44;;;;;;;12.03;8.73;;;;;;;8.50;80.39;99810.31;5053492;28;20250;-75
2023/01/12 08:11:11;;;;;;;11.27;8.43;;;;;;;8.61;81.19;99815.19;5054230;28;20196;-76
2023/01/12 08:13:39;;;;;;;13.33;9.47;;;;;;;8.73;80.89;99811.16;5047040;28;20189;-77
2023/01/12 08:16:11;;;;;;;9.43;8.00;;;;;;;8.66;79.68;99812.88;5052374;28;20220;-76
2023/01/12 08:18:43;;;;;;;8.77;6.13;;;;;;;8.61;79.16;99831.09;5053027;28;20254;-79
2023/01/12 08:21:14;;;;;;;13.93;10.03;;;;;;;8.71;80.15;99826.41;5041786;28;20196;-74
2023/01/12 08:23:44;;;;;;;26.67;15.23;;;;;;;8.71;79.97;99821.09;5033267;28;20225;-76
2023/01/12 08:26:14;;;;;;;19.37;13.30;;;;;;;8.78;79.11;99819.41;5032836;28;20220;-76
2023/01/12 08:28:45;;;;;;;10.33;8.80;;;;;;;8.90;80.13;99825.94;5034235;28;20213;-70
2023/01/12 08:31:14;;;;;;;6.17;5.47;;;;;;;8.82;79.23;99796.88;5049219;28;20180;-78
2023/01/12 08:33:43;;;;;;;9.27;5.57;;;;;;;8.98;78.24;99831.16;5053222;28;20192;-78
2023/01/12 08:36:14;;;;;;;7.83;6.00;;;;;;;9.01;79.40;99822.84;5052634;28;20219;-78
2023/01/12 08:38:40;;;;;;;7.60;6.87;;;;;;;9.12;80.33;99825.09;5042217;28;20181;-77
2023/01/12 08:44:05;;;;;;;7.47;6.63;;;;;;;9.33;78.82;99822.59;5052691;28;20274;-81
2023/01/12 08:46:34;;;;;;;7.67;6.93;;;;;;;9.33;77.58;99828.72;5052104;28;20798;-77
2023/01/12 08:49:02;;;;;;;12.07;7.03;;;;;;;9.31;78.22;99828.06;5048782;28;20242;-75
2023/01/12 08:51:29;;;;;;;7.73;6.90;;;;;;;9.44;78.30;99830.91;5051181;28;20201;-78
2023/01/12 08:53:56;;;;;;;14.07;6.50;;;;;;;9.60;78.08;99825.44;5052521;28;20224;-76
2023/01/12 08:56:23;;;;;;;5.70;5.20;;;;;;;9.65;76.80;99824.91;5049002;28;20196;-74
2023/01/12 08:58:50;;;;;;;7.77;5.00;;;;;;;9.61;76.35;99813.03;5034475;28;20189;-76
2023/01/12 09:01:18;;;;;;;6.23;5.67;;;;;;;9.72;76.50;99818.69;5047815;28;20243;-74
2023/01/12 09:03:47;;;;;;;5.17;4.87;;;;;;;9.71;76.28;99821.53;5052540;28;20299;-75
2023/01/12 09:06:17;;;;;;;6.50;5.00;;;;;;;9.68;76.28;99814.75;5052196;28;20349;-75
2023/01/12 09:08:44;;;;;;;5.13;4.73;;;;;;;9.89;75.76;99808.72;5052760;28;20196;-75
2023/01/12 09:11:13;;;;;;;5.40;4.37;;;;;;;10.06;75.44;99818.16;5050972;28;20192;-82
2023/01/12 09:13:40;;;;;;;6.97;6.27;;;;;;;10.14;74.73;99818.88;5051198;28;20201;-78
2023/01/12 09:16:08;;;;;;;10.07;8.07;;;;;;;10.18;74.22;99820.16;5051379;28;20270;-76
2023/01/12 09:18:36;;;;;;;21.17;11.07;;;;;;;10.33;74.41;99818.31;5040852;28;20200;-75
2023/01/12 09:21:05;;;;;;;18.07;10.33;;;;;;;10.39;73.75;99828.19;5045906;28;20184;-77
2023/01/12 09:23:34;;;;;;;15.63;9.60;;;;;;;10.35;73.53;99826.09;5036853;28;20221;-74
2023/01/12 09:26:06;;;;;;;8.10;6.87;;;;;;;10.16;72.30;99821.34;5044921;28;20607;-76
2023/01/12 09:28:33;;;;;;;7.70;6.03;;;;;;;10.20;72.79;99827.94;5042680;28;20194;-79
2023/01/12 09:31:01;;;;;;;5.50;4.53;;;;;;;10.23;72.39;99822.25;5040287;28;20246;-76
2023/01/12 09:33:29;;;;;;;9.20;8.40;;;;;;;10.28;72.44;99811.91;5034709;28;20203;-76
2023/01/12 09:36:00;;;;;;;5.10;4.80;;;;;;;10.09;72.33;99820.47;5051901;28;20243;-77
2023/01/12 09:38:26;;;;;;;5.57;5.07;;;;;;;10.23;71.63;99827.56;5051881;28;20668;-78
2023/01/12 09:40:56;;;;;;;7.77;6.73;;;;;;;10.35;73.03;99810.16;5051982;28;20193;-74
2023/01/12 09:49:02;;;;;;;7.67;6.93;;;;;;;10.67;71.71;99812.34;5032066;28;20550;-77
2023/01/12 09:51:34;;;;;;;7.87;6.97;;;;;;;10.79;72.44;99805.53;5045505;28;20188;-74
2023/01/12 09:54:01;;;;;;;6.50;5.90;;;;;;;10.90;71.85;99794.38;5051555;28;20185;-76
2023/01/12 09:56:34;;;;;;;7.43;4.97;;;;;;;11.07;71.45;99796.59;5051603;28;20206;-77
2023/01/12 09:59:18;;;;;;;5.10;4.60;;;;;;;11.18;70.88;99789.91;5053173;28;20190;-76
2023/01/12 10:01:45;;;;;;;5.87;4.97;;;;;;;11.22;70.87;99799.16;5055271;28;20238;-74
2023/01/12 10:04:12;;;;;;;5.07;4.67;;;;;;;11.13;69.68;99800.31;5055787;28;20276;-78
2023/01/12 10:06:39;;;;;;;5.27;4.87;;;;;;;11.11;68.71;99797.00;5055843;28;20290;-78
2023/01/12 10:09:10;;;;;;;4.60;4.20;;;;;;;11.08;68.36;99794.75;5054664;28;20191;-79
2023/01/12 10:11:43;;;;;;;8.80;4.80;;;;;;;10.80;68.49;99796.53;5052639;28;20657;-77
2023/01/12 10:14:35;;;;;;;6.50;5.67;;;;;;;10.47;69.97;99782.09;5039741;28;20189;-75
2023/01/12 10:17:19;;;;;;;5.90;5.47;;;;;;;10.26;72.03;99779.41;5036365;28;20239;-78
2023/01/12 10:19:55;;;;;;;8.40;4.50;;;;;;;10.36;72.31;99777.28;5035739;28;20194;-79
2023/01/12 10:22:37;;;;;;;4.33;4.00;;;;;;;10.49;72.46;99774.75;5035313;28;20251;-79
2023/01/12 10:25:18;;;;;;;5.73;3.90;;;;;;;10.67;71.86;99773.31;5052909;28;20201;-78
2023/01/12 10:27:48;;;;;;;4.60;4.20;;;;;;;10.77;72.33;99770.34;5055023;28;20263;-77
2023/01/12 10:30:17;;;;;;;5.17;4.87;;;;;;;10.81;71.06;99768.94;5050252;28;20625;-78
2023/01/12 10:32:44;;;;;;;10.30;8.43;;;;;;;10.80;70.75;99746.88;5047416;28;20193;-78
2023/01/12 10:35:16;;;;;;;12.03;6.03;;;;;;;10.88;70.32;99762.69;5055287;28;20200;-79
2023/01/12 10:37:44;;;;;;;7.03;5.57;;;;;;;10.99;70.62;99766.66;5055511;28;20199;-77
2023/01/12 10:40:23;;;;;;;5.73;4.90;;;;;;;11.05;70.52;99763.22;5045612;28;20205;-74
2023/01/12 10:43:21;;;;;;;5.47;4.97;;;;;;;11.19;69.01;99772.94;5054492;28;20190;-77
2023/01/12 10:46:09;;;;;;;7.03;5.53;;;;;;;11.23;69.32;99763.56;5055459;28;20197;-77
2023/01/12 10:48:37;;;;;;;4.97;4.67;;;;;;;11.38;69.68;99761.63;5054054;28;20212;-78
2023/01/12 10:51:06;;;;;;;6.97;4.13;;;;;;;11.41;69.61;99755.94;5054857;28;20225;-78
2023/01/12 10:53:41;;;;;;;4.67;4.30;;;;;;;11.38;68.82;99750.16;5054802;28;20659;-77
2023/01/12 10:56:14;;;;;;;4.43;4.13;;;;;;;11.45;69.47;99757.19;5054282;28;20222;-71
2023/01/12 10:58:43;;;;;;;5.17;4.70;;;;;;;11.44;68.45;99755.56;5046335;28;20205;-75
2023/01/12 11:01:14;;;;;;;14.10;5.33;;;;;;;11.43;68.52;99759.22;5052752;28;20424;-78
2023/01/12 11:03:41;;;;;;;8.93;5.87;;;;;;;11.56;68.76;99753.16;5053501;28;20283;-79
2023/01/12 11:06:21;;;;;;;5.30;4.87;;;;;;;11.60;69.16;99749.94;5053702;28;20262;-76
2023/01/12 11:08:48;;;;;;;8.23;7.37;;;;;;;11.70;69.44;99750.41;5053534;28;20186;-73
2023/01/12 11:11:20;;;;;;;10.30;9.17;;;;;;;11.76;68.21;99754.13;5053193;28;20661;-76
2023/01/12 11:13:53;;;;;;;21.20;7.07;;;;;;;11.85;68.64;99743.13;5054058;28;20243;-73
2023/01/12 11:16:23;;;;;;;38.13;7.17;;;;;;;11.91;68.22;99752.97;5052506;28;20275;-80
2023/01/12 11:18:57;;;;;;;6.50;4.83;;;;;;;11.76;68.71;99749.59;5051485;28;20190;-72
2023/01/12 11:21:29;;;;;;;10.43;5.37;;;;;;;11.76;67.56;99749.59;5053364;28;20251;-72
2023/01/12 11:24:01;;;;;;;7.67;4.30;;;;;;;11.83;68.88;99746.97;5054158;28;20226;-76
2023/01/12 11:26:35;;;;;;;21.53;5.30;;;;;;;11.96;69.80;99741.75;5051514;28;20193;-77
2023/01/12 11:29:26;;;;;;;12.53;4.83;;;;;;;11.99;69.06;99741.31;5050546;28;20182;-75
2023/01/12 11:31:57;;;;;;;4.43;4.03;;;;;;;12.10;68.28;99741.59;5034402;28;20622;-74
2023/01/12 11:34:32;;;;;;;13.77;4.73;;;;;;;12.15;68.73;99733.81;5033857;28;20243;-74
2023/01/12 11:37:08;;;;;;;11.63;4.97;;;;;;;12.22;68.48;99741.81;5035575;28;20187;-74
2023/01/12 11:39:35;;;;;;;25.67;5.70;;;;;;;12.24;68.38;99731.78;5053863;28;20223;-74
2023/01/12 11:44:56;;;;;;;9.80;5.30;;;;;;;12.44;68.52;99728.16;5033529;28;20257;-74
2023/01/12 11:47:26;;;;;;;5.50;4.87;;;;;;;12.46;67.80;99730.63;5052057;28;20268;-72
2023/01/12 11:49:58;;;;;;;5.00;3.93;;;;;;;12.31;67.05;99709.47;5052729;28;20183;-74
2023/01/12 11:52:26;;;;;;;35.87;6.50;;;;;;;12.29;67.51;99722.16;5035402;28;20187;-75
2023/01/12 11:54:53;;;;;;;7.40;5.10;;;;;;;12.26;67.44;99719.94;5033934;28;20246;-75
2023/01/12 11:57:41;;;;;;;4.47;4.17;;;;;;;12.26;68.44;99714.59;5042769;28;20204;-78
2023/01/12 12:00:27;;;;;;;4.70;4.40;;;;;;;12.32;67.93;99711.13;5043087;28;20578;-76
2023/01/12 12:03:05;;;;;;;5.60;4.70;;;;;;;12.30;67.25;99705.19;5047372;28;20191;-80
2023/01/12 12:05:40;;;;;;;5.30;4.90;;;;;;;12.25;68.51;99715.59;5044095;28;20190;-77
2023/01/12 12:08:22;;;;;;;12.87;5.40;;;;;;;12.26;67.93;99706.59;5048204;28;20691;-74
2023/01/12 12:10:55;;;;;;;11.83;6.37;;;;;;;12.31;69.31;99704.16;5039259;28;20239;-74
2023/01/12 12:13:28;;;;;;;9.87;5.13;;;;;;;12.31;67.97;99705.97;5044323;28;20210;-75
2023/01/12 12:16:06;;;;;;;12.63;9.10;;;;;;;12.33;68.50;99702.09;5044274;28;20190;-77
2023/01/12 12:18:55;;;;;;;13.90;5.63;;;;;;;12.37;68.88;99711.31;5047740;28;20249;-78
2023/01/12 12:21:42;;;;;;;7.03;5.87;;;;;;;12.44;68.67;99706.00;5044101;28;20218;-76
2023/01/12 12:24:34;;;;;;;8.30;7.57;;;;;;;12.52;68.46;99703.97;5045201;28;20235;-76
2023/01/12 12:27:11;;;;;;;26.97;6.60;;;;;;;12.47;68.45;99679.81;5042066;28;20215;-79
2023/01/12 12:29:57;;;;;;;5.90;4.37;;;;;;;12.67;68.34;99695.78;5039649;28;20189;-78